Time;durP1;ratioP1;P1;durP2;ratioP2;P2;SDS_P1;SDS_P2;PMS_P1;PMS_P2;Temp;Humidity;BMP_temperature;BMP_pressure;BME280_temperature;BME280_humidity;BME280_pressure;Samples;Min_cycle;Max_cycle;Signal;HPM_P1;HPM_P2
2023/05/13 00:00:40;;;;;;;11.55;8.98;;;;;;;;;;6184459;23;20056;-80
2023/05/13 00:03:06;;;;;;;12.60;8.23;;;;;;;;;;6157771;23;20017;-80
2023/05/13 00:05:32;;;;;;;19.98;9.90;;;;;;;;;;6157830;23;20067;-80
2023/05/13 00:08:05;;;;;;;13.70;8.90;;;;;;;;;;6156645;23;20460;-80
2023/05/13 00:10:31;;;;;;;;;;;;;;;;;;6157759;23;20023;-80
2023/05/13 00:12:57;;;;;;;11.05;9.20;;;;;;;;;;6157224;23;19916;-80
2023/05/13 00:15:23;;;;;;;10.93;9.18;;;;;;;;;;6157071;23;20017;-80
2023/05/13 00:17:49;;;;;;;13.20;9.52;;;;;;;;;;6157355;23;20082;-80
2023/05/13 00:20:15;;;;;;;15.20;9.45;;;;;;;;;;6183363;23;20013;-80
2023/05/13 00:22:41;;;;;;;14.38;9.90;;;;;;;;;;6132814;23;20421;-80
2023/05/13 00:25:08;;;;;;;14.23;9.57;;;;;;;;;;6132864;23;20013;-80
2023/05/13 00:27:34;;;;;;;12.75;9.45;;;;;;;;;;6157479;23;20036;-80
2023/05/13 00:30:00;;;;;;;14.95;9.70;;;;;;;;;;6157271;23;20088;-80
2023/05/13 00:32:26;;;;;;;11.13;9.68;;;;;;;;;;6157737;23;20020;-80
2023/05/13 00:34:52;;;;;;;11.93;8.55;;;;;;;;;;6156926;23;20013;-80
2023/05/13 00:37:18;;;;;;;14.95;9.80;;;;;;;;;;6183817;23;20024;-80
2023/05/13 00:39:44;;;;;;;11.52;9.52;;;;;;;;;;6183855;23;20016;-80
2023/05/13 00:42:11;;;;;;;14.10;9.48;;;;;;;;;;6157262;23;20013;-81
2023/05/13 00:44:37;;;;;;;15.32;9.27;;;;;;;;;;6157560;23;20021;-80
2023/05/13 00:47:04;;;;;;;11.82;9.82;;;;;;;;;;6132427;23;20016;-80
2023/05/13 00:49:32;;;;;;;13.40;10.18;;;;;;;;;;6183382;23;20017;-80
2023/05/13 00:51:58;;;;;;;11.90;9.98;;;;;;;;;;6132379;23;20013;-80
2023/05/13 00:54:24;;;;;;;13.98;10.10;;;;;;;;;;6183815;23;20009;-80
2023/05/13 00:56:53;;;;;;;14.32;9.25;;;;;;;;;;6183526;23;20013;-80
2023/05/13 00:59:20;;;;;;;14.48;9.57;;;;;;;;;;6183808;23;20031;-80
2023/05/13 01:01:56;;;;;;;11.95;8.70;;;;;;;;;;6156966;23;20444;-81
2023/05/13 01:04:41;;;;;;;12.18;9.93;;;;;;;;;;6156509;23;20040;-81
2023/05/13 01:07:12;;;;;;;12.18;10.40;;;;;;;;;;6156959;23;20097;-80
2023/05/13 01:09:38;;;;;;;12.80;9.98;;;;;;;;;;6183594;23;20086;-81
2023/05/13 01:12:08;;;;;;;15.25;10.23;;;;;;;;;;6183782;23;20048;-81
2023/05/13 01:14:36;;;;;;;14.85;11.98;;;;;;;;;;6132384;23;20013;-81
2023/05/13 01:17:07;;;;;;;15.13;11.73;;;;;;;;;;6156743;23;20013;-80
2023/05/13 01:19:48;;;;;;;17.17;12.90;;;;;;;;;;6156308;23;20053;-81
2023/05/13 01:22:14;;;;;;;15.57;12.68;;;;;;;;;;6183742;23;20009;-80
2023/05/13 01:24:40;;;;;;;14.40;11.90;;;;;;;;;;6183196;23;20045;-81
2023/05/13 01:27:06;;;;;;;17.70;12.13;;;;;;;;;;6183430;23;20009;-81
2023/05/13 01:29:33;;;;;;;14.60;12.02;;;;;;;;;;6156703;23;20091;-81
2023/05/13 01:32:00;;;;;;;15.35;12.45;;;;;;;;;;6156995;23;20013;-80
2023/05/13 01:34:26;;;;;;;18.52;13.82;;;;;;;;;;6156211;23;20020;-80
2023/05/13 01:36:53;;;;;;;15.98;13.15;;;;;;;;;;6132106;23;20091;-80
2023/05/13 01:39:19;;;;;;;15.63;11.95;;;;;;;;;;6156710;23;20091;-81
2023/05/13 01:41:45;;;;;;;15.10;13.45;;;;;;;;;;6183421;23;20017;-79
2023/05/13 01:44:11;;;;;;;18.00;13.75;;;;;;;;;;6183271;23;20048;-80
2023/05/13 01:46:42;;;;;;;16.58;12.75;;;;;;;;;;6156580;23;20020;-80
2023/05/13 01:49:09;;;;;;;17.48;13.68;;;;;;;;;;6156058;23;20432;-81
2023/05/13 01:51:36;;;;;;;15.00;12.95;;;;;;;;;;6156602;23;20017;-80
2023/05/13 01:54:03;;;;;;;18.85;13.20;;;;;;;;;;6183344;23;20071;-81
2023/05/13 01:56:29;;;;;;;17.50;13.80;;;;;;;;;;6156740;23;20397;-80
2023/05/13 01:58:55;;;;;;;17.40;13.38;;;;;;;;;;6156606;23;20071;-80
2023/05/13 02:01:21;;;;;;;15.32;13.73;;;;;;;;;;6182858;23;20448;-81
2023/05/13 02:03:47;;;;;;;16.15;14.45;;;;;;;;;;6182676;23;20055;-81
2023/05/13 02:06:13;;;;;;;20.15;14.23;;;;;;;;;;6156987;23;20017;-81
2023/05/13 02:08:39;;;;;;;17.75;15.05;;;;;;;;;;6183309;23;20020;-80
2023/05/13 02:11:05;;;;;;;15.50;13.82;;;;;;;;;;6156610;23;20457;-80
2023/05/13 02:13:31;;;;;;;18.73;13.95;;;;;;;;;;6156687;23;20021;-81
2023/05/13 02:15:57;;;;;;;16.25;13.10;;;;;;;;;;6131813;23;20344;-82
2023/05/13 02:18:23;;;;;;;16.50;14.15;;;;;;;;;;6130824;23;20035;-80
2023/05/13 02:20:49;;;;;;;16.92;13.10;;;;;;;;;;6156932;23;20225;-81
2023/05/13 02:23:16;;;;;;;15.82;14.23;;;;;;;;;;6156341;23;20013;-80
2023/05/13 02:25:42;;;;;;;15.07;13.48;;;;;;;;;;6183370;23;20056;-80
2023/05/13 02:28:09;;;;;;;16.17;13.48;;;;;;;;;;6156823;23;20329;-80
2023/05/13 02:30:35;;;;;;;17.42;14.95;;;;;;;;;;6156202;23;20012;-80
2023/05/13 02:33:01;;;;;;;18.77;15.13;;;;;;;;;;6131717;23;20095;-80
2023/05/13 02:35:28;;;;;;;18.27;15.60;;;;;;;;;;6182771;23;20009;-80
2023/05/13 02:37:55;;;;;;;16.95;15.07;;;;;;;;;;6131709;23;20024;-80
2023/05/13 02:40:21;;;;;;;15.60;13.93;;;;;;;;;;6131791;23;20017;-80
2023/05/13 02:42:47;;;;;;;17.33;15.57;;;;;;;;;;6131830;23;20341;-80
2023/05/13 02:45:13;;;;;;;18.25;16.35;;;;;;;;;;6157886;23;20088;-80
2023/05/13 02:47:39;;;;;;;20.02;16.15;;;;;;;;;;6133574;23;20020;-80
2023/05/13 02:50:06;;;;;;;23.15;16.25;;;;;;;;;;6133633;23;20205;-80
2023/05/13 02:52:34;;;;;;;20.85;16.50;;;;;;;;;;6158624;23;20045;-80
2023/05/13 02:55:01;;;;;;;19.83;16.50;;;;;;;;;;6184960;23;20389;-80
2023/05/13 02:57:27;;;;;;;18.08;16.23;;;;;;;;;;6158177;23;20017;-80
2023/05/13 02:59:53;;;;;;;20.38;15.85;;;;;;;;;;6157417;23;20452;-80
2023/05/13 03:02:19;;;;;;;18.88;16.65;;;;;;;;;;6133533;23;20096;-80
2023/05/13 03:04:46;;;;;;;20.15;17.67;;;;;;;;;;6185021;23;20013;-80
2023/05/13 03:07:12;;;;;;;18.00;16.20;;;;;;;;;;6158285;23;20024;-80
2023/05/13 03:09:40;;;;;;;21.35;17.63;;;;;;;;;;6133481;23;20009;-80
2023/05/13 03:12:07;;;;;;;24.25;17.98;;;;;;;;;;6133432;23;20016;-80
2023/05/13 03:14:36;;;;;;;26.58;17.70;;;;;;;;;;6184004;23;20069;-80
2023/05/13 03:17:08;;;;;;;23.63;16.90;;;;;;;;;;6157515;23;20027;-80
2023/05/13 03:19:35;;;;;;;24.73;17.98;;;;;;;;;;6133313;23;20016;-80
2023/05/13 03:22:01;;;;;;;20.15;16.73;;;;;;;;;;6184816;23;20037;-80
2023/05/13 03:24:27;;;;;;;19.08;17.13;;;;;;;;;;6157798;23;20105;-80
2023/05/13 03:26:53;;;;;;;26.33;18.38;;;;;;;;;;6158358;23;20069;-80
2023/05/13 03:29:19;;;;;;;23.52;18.52;;;;;;;;;;6157222;23;20013;-80
2023/05/13 03:31:45;;;;;;;20.27;15.77;;;;;;;;;;6158176;23;20020;-80
2023/05/13 03:34:11;;;;;;;20.50;17.65;;;;;;;;;;6133206;23;20013;-80
2023/05/13 03:36:37;;;;;;;21.13;17.77;;;;;;;;;;6133026;23;20467;-79
2023/05/13 03:39:03;;;;;;;22.58;19.42;;;;;;;;;;6157868;23;20021;-79
2023/05/13 03:41:29;;;;;;;20.45;18.08;;;;;;;;;;6157783;23;20360;-81
2023/05/13 03:43:55;;;;;;;24.20;20.13;;;;;;;;;;6157013;23;20392;-80
2023/05/13 03:46:22;;;;;;;21.60;18.88;;;;;;;;;;6157364;23;20143;-80
2023/05/13 03:48:48;;;;;;;21.92;18.48;;;;;;;;;;6157600;23;20013;-80
2023/05/13 03:51:14;;;;;;;21.60;18.42;;;;;;;;;;6133084;23;20109;-79
2023/05/13 03:53:40;;;;;;;23.83;20.75;;;;;;;;;;6158158;23;20092;-80
2023/05/13 03:56:06;;;;;;;23.92;20.17;;;;;;;;;;6157699;23;20013;-80
2023/05/13 03:58:32;;;;;;;21.67;19.50;;;;;;;;;;6132847;23;20112;-80
2023/05/13 04:00:58;;;;;;;26.52;21.35;;;;;;;;;;6133130;23;20013;-79
2023/05/13 04:03:24;;;;;;;25.13;20.80;;;;;;;;;;6133033;23;20013;-79
2023/05/13 04:05:51;;;;;;;24.70;19.80;;;;;;;;;;6132922;23;20333;-80
2023/05/13 04:08:17;;;;;;;24.70;20.83;;;;;;;;;;6184197;23;20345;-80
2023/05/13 04:10:43;;;;;;;19.92;17.83;;;;;;;;;;6157260;23;20087;-79
2023/05/13 04:13:09;;;;;;;22.23;19.83;;;;;;;;;;6156899;23;20444;-80
2023/05/13 04:15:35;;;;;;;22.63;18.38;;;;;;;;;;6183438;23;20440;-80
2023/05/13 04:18:01;;;;;;;23.50;18.00;;;;;;;;;;6157116;23;20021;-80
2023/05/13 04:20:28;;;;;;;19.58;17.38;;;;;;;;;;6184084;23;20020;-80
2023/05/13 04:22:54;;;;;;;22.10;17.80;;;;;;;;;;6157754;23;20332;-80
2023/05/13 04:25:20;;;;;;;24.35;17.48;;;;;;;;;;6132616;23;20080;-80
2023/05/13 04:27:46;;;;;;;20.17;17.50;;;;;;;;;;6157312;23;20028;-80
2023/05/13 04:30:12;;;;;;;18.85;16.80;;;;;;;;;;6157318;23;20017;-80
2023/05/13 04:32:38;;;;;;;19.50;17.33;;;;;;;;;;6132692;23;20047;-80
2023/05/13 04:35:05;;;;;;;22.02;16.30;;;;;;;;;;6157230;23;20374;-79
2023/05/13 04:37:31;;;;;;;17.73;15.82;;;;;;;;;;6132707;23;20096;-80
2023/05/13 04:39:57;;;;;;;18.58;15.13;;;;;;;;;;6156744;23;20044;-80
2023/05/13 04:42:23;;;;;;;19.60;16.00;;;;;;;;;;6183448;23;20021;-80
2023/05/13 04:44:49;;;;;;;19.38;15.35;;;;;;;;;;6132772;23;20095;-80
2023/05/13 04:47:15;;;;;;;18.60;15.52;;;;;;;;;;6157129;23;20013;-79
2023/05/13 04:49:41;;;;;;;18.65;15.73;;;;;;;;;;6157423;23;20013;-80
2023/05/13 04:52:07;;;;;;;17.88;15.10;;;;;;;;;;6183780;23;20008;-79
2023/05/13 04:54:34;;;;;;;18.88;14.73;;;;;;;;;;6132230;23;20015;-80
2023/05/13 04:57:01;;;;;;;18.45;15.57;;;;;;;;;;6132042;23;20040;-79
2023/05/13 04:59:27;;;;;;;19.55;15.07;;;;;;;;;;6156679;23;20013;-80
2023/05/13 05:01:53;;;;;;;17.13;14.25;;;;;;;;;;6183745;23;20043;-80
2023/05/13 05:04:19;;;;;;;22.25;14.55;;;;;;;;;;6157098;23;20045;-79
2023/05/13 05:06:46;;;;;;;21.95;14.32;;;;;;;;;;6156882;23;20063;-79
2023/05/13 05:09:12;;;;;;;15.13;13.60;;;;;;;;;;6156358;23;20376;-80
2023/05/13 05:11:38;;;;;;;15.15;12.90;;;;;;;;;;6183050;23;20043;-80
2023/05/13 05:14:04;;;;;;;15.27;13.00;;;;;;;;;;6131642;23;20409;-79
2023/05/13 05:16:30;;;;;;;17.38;12.32;;;;;;;;;;6156770;23;20028;-79
2023/05/13 05:18:56;;;;;;;14.73;12.45;;;;;;;;;;6131944;23;20103;-80
2023/05/13 05:21:23;;;;;;;15.98;11.75;;;;;;;;;;6183527;23;20059;-79
2023/05/13 05:23:49;;;;;;;13.73;11.35;;;;;;;;;;6157157;23;20013;-80
2023/05/13 05:26:15;;;;;;;19.95;11.27;;;;;;;;;;6156641;23;20020;-79
2023/05/13 05:28:41;;;;;;;15.52;10.65;;;;;;;;;;6131919;23;20104;-80
2023/05/13 05:31:08;;;;;;;13.90;10.70;;;;;;;;;;6156708;23;20064;-79
2023/05/13 05:33:35;;;;;;;15.07;10.45;;;;;;;;;;6182711;23;20491;-79
2023/05/13 05:36:01;;;;;;;16.80;9.77;;;;;;;;;;6132119;23;20408;-78
2023/05/13 05:38:27;;;;;;;15.35;9.95;;;;;;;;;;6132009;23;20340;-80
2023/05/13 05:40:53;;;;;;;15.18;11.55;;;;;;;;;;6156512;23;20048;-79
2023/05/13 05:43:19;;;;;;;14.65;8.98;;;;;;;;;;6183446;23;20020;-79
2023/05/13 05:45:45;;;;;;;13.77;8.00;;;;;;;;;;6131905;23;20156;-79
2023/05/13 05:48:11;;;;;;;11.90;7.80;;;;;;;;;;6156693;23;20471;-81
2023/05/13 05:50:37;;;;;;;12.27;8.18;;;;;;;;;;6156529;23;20013;-81
2023/05/13 05:53:05;;;;;;;11.25;7.20;;;;;;;;;;6156526;23;20160;-82
2023/05/13 05:55:31;;;;;;;15.30;7.35;;;;;;;;;;6155860;23;20044;-81
2023/05/13 05:58:02;;;;;;;10.77;7.25;;;;;;;;;;6156390;23;20017;-81
2023/05/13 06:00:29;;;;;;;10.20;6.70;;;;;;;;;;6182878;23;20017;-81
2023/05/13 06:02:58;;;;;;;11.93;6.45;;;;;;;;;;6156254;23;20016;-81
2023/05/13 06:05:24;;;;;;;9.05;6.65;;;;;;;;;;6131960;23;20017;-82
2023/05/13 06:07:50;;;;;;;10.80;6.78;;;;;;;;;;6183210;23;20052;-81
2023/05/13 06:10:16;;;;;;;9.23;6.32;;;;;;;;;;6155977;23;20035;-82
2023/05/13 06:12:42;;;;;;;9.35;6.07;;;;;;;;;;6155854;23;20019;-80
2023/05/13 06:15:11;;;;;;;11.25;6.28;;;;;;;;;;6131144;23;20108;-81
2023/05/13 06:17:37;;;;;;;11.43;6.60;;;;;;;;;;6155682;23;20025;-80
2023/05/13 06:20:04;;;;;;;9.35;6.45;;;;;;;;;;6155482;23;20013;-80
2023/05/13 06:22:30;;;;;;;9.93;6.47;;;;;;;;;;6131501;23;20103;-81
2023/05/13 06:24:56;;;;;;;11.93;6.65;;;;;;;;;;6155274;23;20021;-80
2023/05/13 06:27:22;;;;;;;9.27;6.55;;;;;;;;;;6156263;23;20429;-80
2023/05/13 06:29:48;;;;;;;11.75;6.03;;;;;;;;;;6155905;23;20064;-80
2023/05/13 06:32:14;;;;;;;10.50;5.53;;;;;;;;;;6131396;23;20064;-80
2023/05/13 06:34:44;;;;;;;11.52;5.60;;;;;;;;;;6155904;23;20312;-79
2023/05/13 06:37:10;;;;;;;10.20;5.55;;;;;;;;;;6181706;23;20496;-79
2023/05/13 06:39:37;;;;;;;10.57;5.75;;;;;;;;;;6182623;23;20009;-79
2023/05/13 06:42:03;;;;;;;9.10;5.80;;;;;;;;;;6156106;23;20028;-79
2023/05/13 06:44:29;;;;;;;9.13;5.05;;;;;;;;;;6182730;23;20024;-79
2023/05/13 06:46:55;;;;;;;8.68;6.07;;;;;;;;;;6182107;23;20116;-82
2023/05/13 06:49:23;;;;;;;12.02;5.47;;;;;;;;;;6182455;23;20021;-82
2023/05/13 06:51:49;;;;;;;8.57;5.43;;;;;;;;;;6155335;23;20390;-84
2023/05/13 06:54:15;;;;;;;9.23;5.28;;;;;;;;;;6155773;23;20033;-82
2023/05/13 06:56:42;;;;;;;10.93;5.20;;;;;;;;;;6131454;23;20013;-82
2023/05/13 06:59:09;;;;;;;8.77;4.97;;;;;;;;;;6131275;23;20024;-83
2023/05/13 07:01:35;;;;;;;12.20;5.28;;;;;;;;;;6156421;23;20092;-84
2023/05/13 07:04:01;;;;;;;9.18;4.80;;;;;;;;;;6155647;23;20021;-84
2023/05/13 07:06:27;;;;;;;9.90;5.40;;;;;;;;;;6154409;23;20020;-83
2023/05/13 07:08:53;;;;;;;13.73;4.90;;;;;;;;;;6130998;23;20025;-84
2023/05/13 07:11:19;;;;;;;7.80;4.78;;;;;;;;;;6156002;23;20016;-84
2023/05/13 07:13:46;;;;;;;10.52;4.97;;;;;;;;;;6182347;23;20088;-84
2023/05/13 07:16:12;;;;;;;10.85;4.97;;;;;;;;;;6153579;23;20017;-84
2023/05/13 07:18:38;;;;;;;9.32;4.68;;;;;;;;;;6152937;23;20017;-84
2023/05/13 07:21:05;;;;;;;8.15;4.50;;;;;;;;;;6152288;23;20020;-83
2023/05/13 07:23:31;;;;;;;10.65;4.63;;;;;;;;;;6128322;23;20048;-84
2023/05/13 07:25:57;;;;;;;9.82;4.60;;;;;;;;;;6128803;23;20013;-84
2023/05/13 07:28:23;;;;;;;13.10;4.95;;;;;;;;;;6153419;23;20067;-84
2023/05/13 07:30:52;;;;;;;7.93;4.38;;;;;;;;;;6155095;23;20389;-84
2023/05/13 07:33:18;;;;;;;6.43;3.78;;;;;;;;;;6157702;23;20017;-84
2023/05/13 07:35:44;;;;;;;8.45;4.20;;;;;;;;;;6132303;23;20109;-84
2023/05/13 07:38:10;;;;;;;8.07;4.72;;;;;;;;;;6132695;23;20104;-84
2023/05/13 07:40:37;;;;;;;6.95;4.43;;;;;;;;;;6157874;23;20021;-84
2023/05/13 07:43:03;;;;;;;9.73;4.68;;;;;;;;;;6157451;23;20020;-84
2023/05/13 07:45:29;;;;;;;13.38;4.85;;;;;;;;;;6132744;23;20388;-84
2023/05/13 07:47:55;;;;;;;7.97;5.20;;;;;;;;;;6132632;23;20013;-84
2023/05/13 07:50:21;;;;;;;12.18;5.53;;;;;;;;;;6132042;23;20023;-84
2023/05/13 07:52:49;;;;;;;7.38;5.10;;;;;;;;;;6132702;23;20020;-84
2023/05/13 07:55:15;;;;;;;7.15;4.90;;;;;;;;;;6157197;23;20093;-85
2023/05/13 07:57:41;;;;;;;9.57;5.15;;;;;;;;;;6132536;23;20020;-84
2023/05/13 08:00:07;;;;;;;8.05;5.15;;;;;;;;;;6132573;23;20036;-84
2023/05/13 08:02:34;;;;;;;8.35;4.95;;;;;;;;;;6183423;23;20020;-84
2023/05/13 08:05:03;;;;;;;7.45;4.57;;;;;;;;;;6156717;23;20013;-84
2023/05/13 08:07:29;;;;;;;8.70;4.78;;;;;;;;;;6157466;23;20027;-84
2023/05/13 08:09:55;;;;;;;11.32;5.13;;;;;;;;;;6157066;23;20013;-83
2023/05/13 08:12:21;;;;;;;12.13;5.35;;;;;;;;;;6184068;23;20012;-84
2023/05/13 08:14:47;;;;;;;15.50;5.40;;;;;;;;;;6183844;23;20541;-84
2023/05/13 08:17:13;;;;;;;11.32;4.70;;;;;;;;;;6132186;23;20025;-85
2023/05/13 08:19:39;;;;;;;7.10;4.32;;;;;;;;;;6183126;23;20020;-84
2023/05/13 08:22:05;;;;;;;9.77;5.43;;;;;;;;;;6157182;23;20278;-87
2023/05/13 08:24:31;;;;;;;7.40;5.38;;;;;;;;;;6156958;23;20045;-84
2023/05/13 08:27:01;;;;;;;6.35;4.80;;;;;;;;;;6157441;23;20009;-84
2023/05/13 08:29:28;;;;;;;7.95;4.70;;;;;;;;;;6183982;23;20028;-84
2023/05/13 08:31:54;;;;;;;9.60;5.10;;;;;;;;;;6132179;23;20032;-84
2023/05/13 08:34:20;;;;;;;8.85;4.75;;;;;;;;;;6156380;23;20099;-84
2023/05/13 08:36:46;;;;;;;7.93;4.85;;;;;;;;;;6132328;23;20013;-83
2023/05/13 08:39:12;;;;;;;8.93;4.70;;;;;;;;;;6132207;23;20024;-84
2023/05/13 08:41:39;;;;;;;10.45;5.22;;;;;;;;;;6183145;23;20017;-83
2023/05/13 08:44:06;;;;;;;12.13;5.00;;;;;;;;;;6183656;23;20337;-84
2023/05/13 08:46:33;;;;;;;10.20;4.68;;;;;;;;;;6132135;23;20019;-86
2023/05/13 08:49:00;;;;;;;7.63;4.72;;;;;;;;;;6131532;23;20032;-86
2023/05/13 08:51:26;;;;;;;10.50;4.85;;;;;;;;;;6183472;23;20019;-87
2023/05/13 08:53:53;;;;;;;8.82;4.88;;;;;;;;;;6156560;23;20024;-84
2023/05/13 08:56:21;;;;;;;8.50;4.55;;;;;;;;;;6131858;23;20009;-85
2023/05/13 08:58:47;;;;;;;9.73;4.65;;;;;;;;;;6156845;23;20087;-86
2023/05/13 09:01:13;;;;;;;6.53;3.85;;;;;;;;;;6157083;23;20051;-86
2023/05/13 09:03:46;;;;;;;9.05;4.95;;;;;;;;;;6131503;23;20024;-86
2023/05/13 09:06:12;;;;;;;8.30;4.50;;;;;;;;;;6156751;23;20013;-86
2023/05/13 09:08:38;;;;;;;8.15;4.65;;;;;;;;;;6131935;23;20023;-85
2023/05/13 09:11:04;;;;;;;9.38;3.80;;;;;;;;;;6131792;23;20013;-86
2023/05/13 09:13:30;;;;;;;14.27;4.30;;;;;;;;;;6182811;23;20013;-86
2023/05/13 09:15:56;;;;;;;8.80;4.03;;;;;;;;;;6156370;23;20028;-86
2023/05/13 09:18:28;;;;;;;9.40;4.15;;;;;;;;;;6155605;23;20013;-86
2023/05/13 09:20:54;;;;;;;10.40;4.05;;;;;;;;;;6156307;23;20009;-83
2023/05/13 09:23:22;;;;;;;6.10;3.67;;;;;;;;;;6156628;23;20105;-84
2023/05/13 09:25:49;;;;;;;7.82;4.07;;;;;;;;;;6156092;23;20471;-84
2023/05/13 09:28:15;;;;;;;8.73;3.67;;;;;;;;;;6131618;23;20013;-84
2023/05/13 09:30:41;;;;;;;14.27;3.78;;;;;;;;;;6156501;23;20013;-84
2023/05/13 09:33:08;;;;;;;8.68;3.80;;;;;;;;;;6131209;23;20024;-83
2023/05/13 09:35:35;;;;;;;8.60;3.55;;;;;;;;;;6131495;23;20107;-83
2023/05/13 09:38:01;;;;;;;7.15;4.00;;;;;;;;;;6156008;23;20029;-83
2023/05/13 09:40:27;;;;;;;9.80;3.92;;;;;;;;;;6156652;23;20009;-85
2023/05/13 09:42:59;;;;;;;11.57;3.83;;;;;;;;;;6182943;23;20017;-83
2023/05/13 09:45:26;;;;;;;7.57;3.65;;;;;;;;;;6131617;23;20024;-83
2023/05/13 09:47:52;;;;;;;9.98;3.75;;;;;;;;;;6130751;23;20029;-84
2023/05/13 09:50:18;;;;;;;10.32;4.05;;;;;;;;;;6131336;23;20013;-84
2023/05/13 09:52:45;;;;;;;9.30;3.75;;;;;;;;;;6155854;23;20099;-83
2023/05/13 09:55:11;;;;;;;13.10;3.70;;;;;;;;;;6156185;23;20019;-83
2023/05/13 09:57:38;;;;;;;7.07;3.65;;;;;;;;;;6131388;23;20017;-84
2023/05/13 10:00:05;;;;;;;12.93;3.78;;;;;;;;;;6130751;23;20384;-83
2023/05/13 10:02:31;;;;;;;8.27;3.42;;;;;;;;;;6156176;23;20017;-84
2023/05/13 10:04:57;;;;;;;8.90;3.38;;;;;;;;;;6131294;23;20013;-83
2023/05/13 10:07:24;;;;;;;11.20;3.63;;;;;;;;;;6155989;23;20012;-83
2023/05/13 10:09:52;;;;;;;7.75;3.67;;;;;;;;;;6155783;23;20050;-83
2023/05/13 10:12:19;;;;;;;6.35;3.92;;;;;;;;;;6156101;23;20048;-84
2023/05/13 10:14:46;;;;;;;9.02;4.15;;;;;;;;;;6155044;23;20399;-84
2023/05/13 10:17:13;;;;;;;8.73;4.80;;;;;;;;;;6181921;23;20009;-83
2023/05/13 10:19:39;;;;;;;7.72;4.78;;;;;;;;;;6156134;23;20013;-84
2023/05/13 10:22:05;;;;;;;10.07;3.88;;;;;;;;;;6182618;23;20009;-83
2023/05/13 10:24:32;;;;;;;4.68;3.13;;;;;;;;;;6156168;23;20116;-83
2023/05/13 10:26:58;;;;;;;6.20;3.50;;;;;;;;;;6130979;23;20456;-83
2023/05/13 10:29:24;;;;;;;9.05;3.92;;;;;;;;;;6130643;23;20424;-83
2023/05/13 10:31:51;;;;;;;10.10;4.38;;;;;;;;;;6182426;23;20039;-83
2023/05/13 10:34:17;;;;;;;8.82;4.43;;;;;;;;;;6155664;23;20074;-83
2023/05/13 10:36:49;;;;;;;8.52;4.43;;;;;;;;;;6182076;23;20032;-83
2023/05/13 10:39:15;;;;;;;10.63;4.07;;;;;;;;;;6131222;23;20013;-83
2023/05/13 10:41:47;;;;;;;10.95;4.47;;;;;;;;;;6130861;23;20055;-83
2023/05/13 10:44:13;;;;;;;12.67;4.37;;;;;;;;;;6154961;23;20409;-81
2023/05/13 10:46:42;;;;;;;7.13;4.05;;;;;;;;;;6130863;23;20013;-81
2023/05/13 10:49:13;;;;;;;13.40;4.82;;;;;;;;;;6155916;23;20080;-80
2023/05/13 10:51:44;;;;;;;14.65;4.40;;;;;;;;;;6182536;23;20013;-79
2023/05/13 10:54:17;;;;;;;8.13;4.30;;;;;;;;;;6155898;23;20044;-81
2023/05/13 10:56:43;;;;;;;8.00;4.20;;;;;;;;;;6154740;23;20022;-80
2023/05/13 10:59:11;;;;;;;8.27;3.63;;;;;;;;;;6152260;23;20347;-80
2023/05/13 11:01:42;;;;;;;5.95;3.65;;;;;;;;;;6155409;23;20044;-81
2023/05/13 11:04:11;;;;;;;10.10;4.72;;;;;;;;;;6155144;23;20017;-81
2023/05/13 11:06:38;;;;;;;6.63;3.80;;;;;;;;;;6132926;23;20048;-82
2023/05/13 11:09:05;;;;;;;8.57;3.80;;;;;;;;;;6157232;23;20017;-82
2023/05/13 11:11:32;;;;;;;9.10;3.47;;;;;;;;;;6157893;23;20024;-82
2023/05/13 11:13:58;;;;;;;7.30;3.80;;;;;;;;;;6129833;23;20021;-82
2023/05/13 11:16:24;;;;;;;10.35;3.97;;;;;;;;;;6130250;23;20017;-80
2023/05/13 11:18:51;;;;;;;4.72;3.15;;;;;;;;;;6130227;23;20352;-80
2023/05/13 11:21:17;;;;;;;10.38;3.58;;;;;;;;;;6154508;23;20019;-82
2023/05/13 11:23:57;;;;;;;11.88;3.58;;;;;;;;;;6130113;23;20013;-81
2023/05/13 11:26:23;;;;;;;8.27;3.78;;;;;;;;;;6181525;23;20454;-82
2023/05/13 11:28:56;;;;;;;9.35;3.90;;;;;;;;;;6155790;23;20289;-82
2023/05/13 11:31:23;;;;;;;9.00;3.30;;;;;;;;;;6157393;23;20056;-82
2023/05/13 11:34:10;;;;;;;5.97;2.83;;;;;;;;;;6157516;23;20013;-82
2023/05/13 11:36:37;;;;;;;6.93;2.65;;;;;;;;;;6132607;23;20009;-82
2023/05/13 11:39:14;;;;;;;15.48;2.90;;;;;;;;;;6132816;23;20017;-82
2023/05/13 11:41:41;;;;;;;10.70;2.90;;;;;;;;;;6156872;23;20053;-82
2023/05/13 11:44:07;;;;;;;7.53;2.70;;;;;;;;;;6157375;23;20013;-82
2023/05/13 11:46:33;;;;;;;6.32;2.70;;;;;;;;;;6184161;23;20329;-82
2023/05/13 11:48:59;;;;;;;8.10;3.13;;;;;;;;;;6157145;23;20519;-82
2023/05/13 11:51:26;;;;;;;7.35;2.78;;;;;;;;;;6132847;23;20020;-82
2023/05/13 11:53:52;;;;;;;6.95;2.97;;;;;;;;;;6132756;23;20020;-82
2023/05/13 11:56:18;;;;;;;11.35;3.30;;;;;;;;;;6156647;23;20013;-81
2023/05/13 11:58:44;;;;;;;7.35;2.95;;;;;;;;;;6157835;23;20024;-82
2023/05/13 12:01:14;;;;;;;5.93;2.80;;;;;;;;;;6132600;23;20600;-82
2023/05/13 12:03:40;;;;;;;10.00;3.50;;;;;;;;;;6157094;23;20076;-82
2023/05/13 12:06:06;;;;;;;6.60;2.67;;;;;;;;;;6156921;23;20067;-81
2023/05/13 12:08:32;;;;;;;7.13;2.80;;;;;;;;;;6156763;23;20055;-79
2023/05/13 12:10:59;;;;;;;9.30;3.28;;;;;;;;;;6156373;23;20064;-80
2023/05/13 12:13:25;;;;;;;7.28;3.28;;;;;;;;;;6183797;23;20016;-81
2023/05/13 12:15:52;;;;;;;8.43;3.45;;;;;;;;;;6126936;23;20316;-80
2023/05/13 12:18:18;;;;;;;7.13;3.08;;;;;;;;;;6151850;23;20025;-80
2023/05/13 12:20:45;;;;;;;6.00;3.10;;;;;;;;;;6154082;23;20018;-79
2023/05/13 12:23:11;;;;;;;12.90;2.70;;;;;;;;;;6152505;23;20341;-80
2023/05/13 12:25:44;;;;;;;5.05;2.60;;;;;;;;;;6151575;23;20384;-79
2023/05/13 12:28:23;;;;;;;8.75;3.72;;;;;;;;;;6152415;23;20016;-79
2023/05/13 12:30:52;;;;;;;9.52;4.10;;;;;;;;;;6152103;23;20020;-79
2023/05/13 12:33:21;;;;;;;12.25;3.88;;;;;;;;;;6127295;23;20337;-79
2023/05/13 12:35:49;;;;;;;10.80;4.03;;;;;;;;;;6151880;23;20013;-81
2023/05/13 12:38:16;;;;;;;6.93;3.72;;;;;;;;;;6127321;23;20013;-80
2023/05/13 12:40:43;;;;;;;9.02;3.70;;;;;;;;;;6153284;23;20045;-81
2023/05/13 12:43:10;;;;;;;6.93;3.05;;;;;;;;;;6127243;23;20021;-81
2023/05/13 12:45:37;;;;;;;6.43;3.95;;;;;;;;;;6127026;23;20093;-80
2023/05/13 12:48:03;;;;;;;6.95;3.40;;;;;;;;;;6151633;23;20390;-80
2023/05/13 12:50:29;;;;;;;12.07;3.45;;;;;;;;;;6151758;23;20017;-79
2023/05/13 12:52:56;;;;;;;5.22;3.00;;;;;;;;;;6127138;23;20021;-79
2023/05/13 12:55:22;;;;;;;12.85;3.53;;;;;;;;;;6150935;23;20052;-80
2023/05/13 12:57:56;;;;;;;9.43;3.50;;;;;;;;;;6151589;23;20092;-80
2023/05/13 13:00:22;;;;;;;8.18;3.65;;;;;;;;;;6151856;23;20014;-81
2023/05/13 13:02:49;;;;;;;8.90;3.55;;;;;;;;;;6126983;23;20048;-80
2023/05/13 13:05:15;;;;;;;10.25;3.40;;;;;;;;;;6124464;23;20504;-82
2023/05/13 13:07:41;;;;;;;5.97;3.17;;;;;;;;;;6152580;23;20400;-81
2023/05/13 13:10:08;;;;;;;7.95;3.38;;;;;;;;;;6123979;23;20014;-80
2023/05/13 13:12:34;;;;;;;8.75;3.15;;;;;;;;;;6151126;23;20441;-80
2023/05/13 13:15:00;;;;;;;8.57;3.60;;;;;;;;;;6126466;23;20009;-80
2023/05/13 13:17:26;;;;;;;8.63;3.53;;;;;;;;;;6126012;23;20425;-80
2023/05/13 13:19:52;;;;;;;6.00;3.53;;;;;;;;;;6153332;23;20014;-81
2023/05/13 13:22:18;;;;;;;6.53;3.78;;;;;;;;;;6153191;23;20621;-81
2023/05/13 13:24:44;;;;;;;6.07;3.03;;;;;;;;;;6152385;23;20046;-81
2023/05/13 13:27:11;;;;;;;6.35;3.28;;;;;;;;;;6151481;23;20021;-81
2023/05/13 13:29:37;;;;;;;6.00;3.35;;;;;;;;;;6151251;23;20026;-80
2023/05/13 13:32:03;;;;;;;8.40;3.40;;;;;;;;;;6151131;23;20013;-80
2023/05/13 13:34:29;;;;;;;8.85;3.85;;;;;;;;;;6124808;23;20037;-80
2023/05/13 13:36:55;;;;;;;7.50;3.58;;;;;;;;;;6126157;23;20021;-80
2023/05/13 13:39:21;;;;;;;9.52;3.55;;;;;;;;;;6151145;23;20067;-80
2023/05/13 13:41:47;;;;;;;11.82;3.38;;;;;;;;;;6126509;23;20056;-81
2023/05/13 13:44:13;;;;;;;7.07;3.15;;;;;;;;;;6151532;23;20152;-82
2023/05/13 13:46:39;;;;;;;7.47;3.30;;;;;;;;;;6151550;23;20045;-84
2023/05/13 13:49:05;;;;;;;8.23;3.38;;;;;;;;;;6152787;23;20009;-82
2023/05/13 13:51:31;;;;;;;10.95;3.67;;;;;;;;;;6153199;23;20092;-82
2023/05/13 13:54:02;;;;;;;14.93;4.05;;;;;;;;;;6159437;23;20040;-85
2023/05/13 13:56:29;;;;;;;6.32;3.22;;;;;;;;;;6136529;23;20028;-85
2023/05/13 13:58:55;;;;;;;10.63;3.63;;;;;;;;;;6161713;23;20113;-85
2023/05/13 14:01:21;;;;;;;6.15;3.20;;;;;;;;;;6163332;23;20022;-86
2023/05/13 14:03:52;;;;;;;9.70;3.35;;;;;;;;;;6137472;23;20067;-84
2023/05/13 14:06:18;;;;;;;8.48;3.20;;;;;;;;;;6136624;23;20314;-84
2023/05/13 14:08:44;;;;;;;12.38;3.42;;;;;;;;;;6157775;23;20024;-85
2023/05/13 14:11:10;;;;;;;9.32;3.20;;;;;;;;;;6158354;23;20032;-85
2023/05/13 14:13:36;;;;;;;8.40;3.60;;;;;;;;;;6134589;23;20014;-83
2023/05/13 14:16:03;;;;;;;9.55;3.13;;;;;;;;;;6161127;23;20383;-85
2023/05/13 14:18:29;;;;;;;7.57;3.40;;;;;;;;;;6136341;23;20024;-85
2023/05/13 14:20:55;;;;;;;9.20;3.25;;;;;;;;;;6129866;23;20019;-81
2023/05/13 14:23:21;;;;;;;10.13;3.13;;;;;;;;;;6152927;23;20088;-83
2023/05/13 14:25:47;;;;;;;6.03;3.17;;;;;;;;;;6133274;23;20045;-85
2023/05/13 14:28:14;;;;;;;7.55;3.33;;;;;;;;;;6157074;23;20461;-85